createdAt,value
2018-01-30T00:00:17.588Z,5.34
2018-01-30T00:01:23.085Z,5.29
2018-01-30T00:02:27.957Z,5.25
2018-01-30T00:03:32.713Z,5.15
2018-01-30T00:04:38.512Z,5.13
2018-01-30T00:05:44.729Z,5.20
2018-01-30T00:06:50.645Z,5.13
2018-01-30T00:07:56.012Z,5.16
2018-01-30T00:09:00.888Z,5.11
2018-01-30T00:10:05.436Z,5.10
2018-01-30T00:11:11.134Z,5.09
2018-01-30T00:12:15.981Z,5.05
2018-01-30T00:13:20.811Z,5.09
2018-01-30T00:14:29.621Z,5.03
2018-01-30T00:15:35.595Z,5.07
2018-01-30T00:16:41.144Z,5.09
2018-01-30T00:17:46.758Z,5.08
2018-01-30T00:18:51.556Z,5.08
2018-01-30T00:19:58.582Z,5.09
2018-01-30T00:21:04.178Z,5.05
2018-01-30T00:22:09.238Z,5.00
2018-01-30T00:23:14.967Z,5.01
2018-01-30T00:24:20.019Z,5.02
2018-01-30T00:25:27.296Z,5.05
2018-01-30T00:26:32.718Z,5.07
2018-01-30T00:27:38.284Z,5.07
2018-01-30T00:28:43.164Z,5.02
2018-01-30T00:29:48.925Z,5.04
2018-01-30T00:30:53.753Z,5.07
2018-01-30T00:31:59.000Z,5.10
2018-01-30T00:33:04.475Z,5.15
2018-01-30T00:34:09.634Z,5.13
2018-01-30T00:35:14.393Z,5.12
2018-01-30T00:36:19.755Z,5.11
2018-01-30T00:37:26.059Z,5.08
2018-01-30T00:38:31.841Z,5.07
2018-01-30T00:39:43.158Z,5.09
2018-01-30T00:40:48.607Z,5.12
2018-01-30T00:41:53.462Z,5.13
2018-01-30T00:42:58.673Z,5.15
2018-01-30T00:44:04.046Z,5.20
2018-01-30T00:45:09.197Z,5.19
2018-01-30T00:46:14.442Z,5.19
2018-01-30T00:47:19.759Z,5.14
2018-01-30T00:48:31.327Z,5.14
2018-01-30T00:49:37.324Z,5.16
2018-01-30T00:50:43.319Z,5.20
2018-01-30T00:51:48.640Z,5.20
2018-01-30T00:52:52.952Z,5.14
2018-01-30T00:53:57.779Z,5.20
2018-01-30T00:55:02.386Z,5.17
2018-01-30T00:56:07.145Z,5.20
2018-01-30T00:57:12.575Z,5.21
2018-01-30T00:58:19.023Z,5.20
2018-01-30T00:59:24.794Z,5.25
2018-01-30T01:00:29.337Z,5.28
2018-01-30T01:01:34.485Z,5.37
2018-01-30T01:02:39.409Z,5.42
2018-01-30T01:03:44.925Z,5.44
2018-01-30T01:04:50.317Z,5.57
2018-01-30T01:05:55.149Z,5.48
2018-01-30T01:07:00.615Z,5.49
2018-01-30T01:08:06.298Z,5.46
2018-01-30T01:09:11.159Z,5.39
2018-01-30T01:10:16.668Z,5.45
2018-01-30T01:11:21.555Z,5.46
2018-01-30T01:12:27.153Z,5.42
2018-01-30T01:13:31.986Z,5.26
2018-01-30T01:14:38.012Z,5.21
2018-01-30T01:15:43.554Z,5.22
2018-01-30T01:16:48.341Z,5.14
2018-01-30T01:17:52.594Z,5.07
2018-01-30T01:19:04.622Z,5.02
2018-01-30T01:20:10.235Z,5.01
2018-01-30T01:21:15.168Z,4.96
2018-01-30T01:22:21.245Z,4.92
2018-01-30T01:23:26.018Z,4.87
2018-01-30T01:24:35.420Z,4.91
2018-01-30T01:25:40.211Z,4.83
2018-01-30T01:26:47.032Z,4.70
2018-01-30T01:27:52.602Z,4.61
2018-01-30T01:28:57.355Z,4.59
2018-01-30T01:30:03.114Z,4.55
2018-01-30T01:31:18.017Z,4.56
2018-01-30T01:32:22.342Z,4.50
2018-01-30T01:33:27.798Z,4.46
2018-01-30T01:35:44.643Z,4.39
2018-01-30T01:36:49.807Z,4.51
2018-01-30T01:37:54.013Z,4.45
2018-01-30T01:38:59.380Z,4.37
2018-01-30T01:40:04.847Z,4.31
2018-01-30T01:41:10.126Z,4.23
2018-01-30T01:42:14.930Z,4.31
2018-01-30T01:43:20.591Z,4.26
2018-01-30T01:44:30.537Z,4.18
2018-01-30T01:45:39.368Z,4.20
2018-01-30T01:46:44.829Z,4.19
2018-01-30T01:47:50.181Z,4.18
2018-01-30T01:48:55.002Z,4.19
2018-01-30T01:49:59.758Z,4.19
2018-01-30T01:51:05.332Z,4.14
2018-01-30T01:52:10.664Z,4.11
2018-01-30T01:53:16.357Z,4.15
2018-01-30T01:54:21.201Z,4.13
2018-01-30T01:55:27.557Z,4.09
2018-01-30T01:56:33.295Z,4.08
2018-01-30T01:57:38.500Z,4.13
2018-01-30T01:58:42.791Z,4.06
2018-01-30T01:59:47.387Z,3.99
2018-01-30T02:00:53.399Z,4.02
2018-01-30T02:01:58.330Z,3.96
2018-01-30T02:03:03.953Z,3.98
2018-01-30T02:04:08.813Z,4.05
2018-01-30T02:05:13.637Z,4.04
2018-01-30T02:06:18.973Z,4.01
2018-01-30T02:07:25.153Z,4.02
2018-01-30T02:08:30.861Z,4.01
2018-01-30T02:09:39.828Z,4.02
2018-01-30T02:10:44.712Z,4.00
2018-01-30T02:11:50.277Z,3.99
2018-01-30T02:12:55.049Z,4.05
2018-01-30T02:13:59.927Z,4.03
2018-01-30T02:15:06.664Z,4.02
2018-01-30T02:16:12.532Z,4.06
2018-01-30T02:17:17.553Z,4.04
2018-01-30T02:18:22.884Z,3.99
2018-01-30T02:19:29.732Z,4.00
2018-01-30T02:20:35.330Z,3.98
2018-01-30T02:21:41.481Z,3.95
2018-01-30T02:22:45.660Z,3.99
2018-01-30T02:23:50.405Z,4.00
2018-01-30T02:24:56.567Z,4.02
2018-01-30T02:26:01.415Z,4.00
2018-01-30T02:27:06.888Z,4.00
2018-01-30T02:28:11.216Z,4.00
2018-01-30T02:29:16.813Z,3.98
2018-01-30T02:30:22.017Z,3.95
2018-01-30T02:31:29.798Z,4.00
2018-01-30T02:32:34.515Z,3.98
2018-01-30T02:33:38.869Z,3.96
2018-01-30T02:34:43.811Z,4.01
2018-01-30T02:35:48.164Z,3.97
2018-01-30T02:36:54.655Z,3.93
2018-01-30T02:37:59.798Z,3.97
2018-01-30T02:39:06.815Z,4.07
2018-01-30T02:40:11.707Z,4.09
2018-01-30T02:41:17.832Z,4.07
2018-01-30T02:42:23.373Z,4.03
2018-01-30T02:43:29.312Z,4.05
2018-01-30T02:44:34.380Z,4.00
2018-01-30T02:45:44.667Z,4.01
2018-01-30T02:46:50.496Z,4.00
2018-01-30T02:47:56.017Z,3.98
2018-01-30T02:49:00.246Z,3.97
2018-01-30T02:50:05.978Z,3.92
2018-01-30T02:51:10.745Z,3.94
2018-01-30T02:52:15.542Z,3.93
2018-01-30T02:53:20.272Z,3.92
2018-01-30T02:54:24.824Z,3.90
2018-01-30T02:55:31.233Z,3.91
2018-01-30T02:56:35.992Z,3.92
2018-01-30T02:57:40.736Z,3.87
2018-01-30T02:58:45.596Z,3.85
2018-01-30T02:59:50.889Z,3.83
2018-01-30T03:00:55.869Z,3.83
2018-01-30T03:02:02.143Z,3.78
2018-01-30T03:03:06.887Z,3.91
2018-01-30T03:04:13.167Z,3.88
2018-01-30T03:05:17.359Z,3.78
2018-01-30T03:06:22.592Z,3.79
2018-01-30T03:08:40.338Z,3.77
2018-01-30T03:09:45.256Z,3.78
2018-01-30T03:10:50.295Z,3.76
2018-01-30T03:11:55.337Z,3.83
2018-01-30T03:13:01.725Z,3.79
2018-01-30T03:14:06.095Z,3.74
2018-01-30T03:15:13.192Z,3.71
2018-01-30T03:16:18.033Z,3.64
2018-01-30T03:17:25.784Z,3.66
2018-01-30T03:18:30.684Z,3.71
2018-01-30T03:19:36.098Z,3.64
2018-01-30T03:20:42.414Z,3.64
2018-01-30T03:21:48.048Z,3.65
2018-01-30T03:22:54.098Z,3.59
2018-01-30T03:23:59.496Z,3.56
2018-01-30T03:25:04.984Z,3.54
2018-01-30T03:26:12.117Z,3.61
2018-01-30T03:27:16.905Z,3.60
2018-01-30T03:28:21.727Z,3.57
2018-01-30T03:29:27.182Z,3.66
2018-01-30T03:30:32.218Z,3.72
2018-01-30T03:31:37.689Z,3.75
2018-01-30T03:32:42.810Z,3.80
2018-01-30T03:33:47.627Z,3.77
2018-01-30T03:34:52.429Z,3.72
2018-01-30T03:35:57.337Z,3.71
2018-01-30T03:37:02.250Z,3.75
2018-01-30T03:38:07.258Z,3.82
2018-01-30T03:39:12.691Z,3.81
2018-01-30T03:40:17.036Z,3.77
2018-01-30T03:41:23.245Z,3.77
2018-01-30T03:42:28.779Z,3.77
2018-01-30T03:43:36.068Z,3.75
2018-01-30T03:44:41.733Z,3.70
2018-01-30T03:45:49.116Z,3.68
2018-01-30T03:46:54.655Z,3.66
2018-01-30T03:47:59.354Z,3.62
2018-01-30T03:49:06.253Z,3.72
2018-01-30T03:50:10.995Z,3.70
2018-01-30T03:51:16.942Z,3.75
2018-01-30T03:52:24.279Z,3.71
2018-01-30T03:53:30.506Z,3.70
2018-01-30T03:54:34.944Z,3.68
2018-01-30T03:55:40.977Z,3.66
2018-01-30T03:56:47.011Z,3.65
2018-01-30T03:57:51.188Z,3.67
2018-01-30T03:58:57.608Z,3.65
2018-01-30T04:00:04.010Z,3.66
2018-01-30T04:01:09.583Z,3.69
2018-01-30T04:02:15.623Z,3.70
2018-01-30T04:04:35.031Z,3.80
2018-01-30T04:05:39.165Z,3.75
2018-01-30T04:06:43.285Z,3.77
2018-01-30T04:07:48.045Z,3.73
2018-01-30T04:08:52.668Z,3.70
2018-01-30T04:09:57.462Z,3.65
2018-01-30T04:11:01.678Z,3.66
2018-01-30T04:12:06.113Z,3.69
2018-01-30T04:13:10.569Z,3.69
2018-01-30T04:14:14.699Z,3.70
2018-01-30T04:15:19.326Z,3.81
2018-01-30T04:16:23.874Z,3.82
2018-01-30T04:17:28.012Z,3.81
2018-01-30T04:18:32.115Z,3.80
2018-01-30T04:19:37.115Z,3.78
2018-01-30T04:20:41.414Z,3.72
2018-01-30T04:21:45.900Z,3.71
2018-01-30T04:22:50.307Z,3.74
2018-01-30T04:23:54.530Z,3.80
2018-01-30T04:24:59.626Z,3.82
2018-01-30T04:26:03.754Z,3.79
2018-01-30T04:27:07.977Z,3.79
2018-01-30T04:28:12.110Z,3.79
2018-01-30T04:29:16.319Z,3.76
2018-01-30T04:30:20.972Z,3.76
2018-01-30T04:31:26.004Z,3.76
2018-01-30T04:32:30.713Z,3.67
2018-01-30T04:33:35.523Z,3.67
2018-01-30T04:34:39.761Z,3.77
2018-01-30T04:35:44.195Z,3.73
2018-01-30T04:36:48.282Z,3.74
2018-01-30T04:37:52.471Z,3.74
2018-01-30T04:38:56.725Z,3.75
2018-01-30T04:40:00.898Z,3.72
2018-01-30T04:41:05.120Z,3.71
2018-01-30T04:42:09.562Z,3.71
2018-01-30T04:43:13.733Z,3.72
2018-01-30T04:44:17.986Z,3.68
2018-01-30T04:45:22.694Z,3.62
2018-01-30T04:46:28.425Z,3.55
2018-01-30T04:47:35.324Z,3.44
2018-01-30T04:48:39.766Z,3.40
2018-01-30T04:49:44.102Z,3.38
2018-01-30T04:50:48.260Z,3.44
2018-01-30T04:51:52.375Z,3.42
2018-01-30T04:52:56.521Z,3.37
2018-01-30T04:54:01.109Z,3.37
2018-01-30T04:55:06.307Z,3.38
2018-01-30T04:56:10.490Z,3.39
2018-01-30T04:57:14.621Z,3.42
2018-01-30T04:58:18.748Z,3.35
2018-01-30T04:59:22.876Z,3.35
2018-01-30T05:00:28.753Z,3.40
2018-01-30T05:01:32.918Z,3.39
2018-01-30T05:02:39.098Z,3.36
2018-01-30T05:03:43.184Z,3.43
2018-01-30T05:04:47.362Z,3.42
2018-01-30T05:05:51.565Z,3.34
2018-01-30T05:06:56.107Z,3.33
2018-01-30T05:08:00.299Z,3.36
2018-01-30T05:09:04.574Z,3.39
2018-01-30T05:10:08.689Z,3.41
2018-01-30T05:11:12.798Z,3.42
2018-01-30T05:12:17.047Z,3.34
2018-01-30T05:13:21.481Z,3.33
2018-01-30T05:14:25.642Z,3.38
2018-01-30T05:15:30.783Z,3.41
2018-01-30T05:16:35.594Z,3.44
2018-01-30T05:17:39.814Z,3.41
2018-01-30T05:18:43.946Z,3.44
2018-01-30T05:19:48.262Z,3.41
2018-01-30T05:20:52.371Z,3.36
2018-01-30T05:21:57.413Z,3.31
2018-01-30T05:23:01.566Z,3.33
2018-01-30T05:24:05.730Z,3.33
2018-01-30T05:25:09.973Z,3.34
2018-01-30T05:26:14.438Z,3.35
2018-01-30T05:27:18.705Z,3.33
2018-01-30T05:28:22.843Z,3.33
2018-01-30T05:29:27.060Z,3.29
2018-01-30T05:30:31.701Z,3.23
2018-01-30T05:31:35.931Z,3.22
2018-01-30T05:32:40.370Z,3.29
2018-01-30T05:33:44.590Z,3.30
2018-01-30T05:34:48.742Z,3.28
2018-01-30T05:35:52.988Z,3.18
2018-01-30T05:36:57.152Z,3.10
2018-01-30T05:38:01.283Z,3.07
2018-01-30T05:39:06.490Z,3.06
2018-01-30T05:40:10.721Z,3.05
2018-01-30T05:41:14.824Z,2.96
2018-01-30T05:42:18.962Z,2.94
2018-01-30T05:43:23.079Z,2.91
2018-01-30T05:44:27.238Z,2.89
2018-01-30T05:45:32.550Z,2.88
2018-01-30T05:46:37.242Z,2.84
2018-01-30T05:47:41.387Z,2.83
2018-01-30T05:48:45.632Z,2.78
2018-01-30T05:49:49.786Z,2.82
2018-01-30T05:50:53.955Z,2.80
2018-01-30T05:51:58.398Z,2.76
2018-01-30T05:53:02.529Z,2.70
2018-01-30T05:54:06.762Z,2.67
2018-01-30T05:55:10.958Z,2.72
2018-01-30T05:56:15.150Z,2.70
2018-01-30T05:57:19.339Z,2.69
2018-01-30T05:58:23.814Z,2.73
2018-01-30T05:59:27.990Z,2.73
2018-01-30T06:00:32.467Z,2.76
2018-01-30T06:01:37.411Z,2.74
2018-01-30T06:02:42.420Z,2.81
2018-01-30T06:03:46.624Z,2.83
2018-01-30T06:04:50.793Z,2.87
2018-01-30T06:05:55.026Z,2.87
2018-01-30T06:06:59.171Z,2.90
2018-01-30T06:08:03.356Z,2.86
2018-01-30T06:09:07.571Z,2.90
2018-01-30T06:10:11.929Z,2.88
2018-01-30T06:11:18.133Z,2.85
2018-01-30T06:12:23.106Z,2.88
2018-01-30T06:13:27.208Z,2.86
2018-01-30T06:14:32.088Z,2.97
2018-01-30T06:15:36.657Z,3.01
2018-01-30T06:16:40.795Z,2.98
2018-01-30T06:17:45.226Z,2.97
2018-01-30T06:18:49.467Z,2.95
2018-01-30T06:19:53.594Z,2.96
2018-01-30T06:20:57.762Z,2.99
2018-01-30T06:22:01.964Z,2.96
2018-01-30T06:23:06.250Z,3.01
2018-01-30T06:24:10.754Z,3.02
2018-01-30T06:25:14.918Z,3.00
2018-01-30T06:26:19.200Z,2.94
2018-01-30T06:27:23.377Z,2.94
2018-01-30T06:28:27.549Z,2.97
2018-01-30T06:29:33.346Z,3.01
2018-01-30T06:30:37.839Z,3.05
2018-01-30T06:31:42.357Z,3.01
2018-01-30T06:32:46.495Z,3.02
2018-01-30T06:33:50.611Z,2.99
2018-01-30T06:34:54.769Z,2.94
2018-01-30T06:35:58.983Z,2.89
2018-01-30T06:37:03.501Z,2.82
2018-01-30T06:38:07.667Z,2.75
2018-01-30T06:39:11.861Z,2.75
2018-01-30T06:40:16.183Z,2.76
2018-01-30T06:41:20.449Z,2.77
2018-01-30T06:42:25.009Z,2.84
2018-01-30T06:43:29.174Z,2.77
2018-01-30T06:44:33.375Z,2.70
2018-01-30T06:45:37.723Z,2.68
2018-01-30T06:46:41.942Z,2.65
2018-01-30T06:47:46.094Z,2.61
2018-01-30T06:48:50.650Z,2.60
2018-01-30T06:49:54.931Z,2.58
2018-01-30T06:50:59.130Z,2.54
2018-01-30T06:52:03.315Z,2.50
2018-01-30T06:53:07.530Z,2.60
2018-01-30T06:54:11.746Z,2.63
2018-01-30T06:55:15.873Z,2.60
2018-01-30T06:56:20.111Z,2.54
2018-01-30T06:57:24.273Z,2.55
2018-01-30T06:58:28.398Z,2.56
2018-01-30T06:59:32.507Z,2.51
2018-01-30T07:00:36.637Z,2.46
2018-01-30T07:01:41.156Z,2.46
2018-01-30T07:02:45.999Z,2.43
2018-01-30T07:03:50.282Z,2.41
2018-01-30T07:04:54.626Z,2.41
2018-01-30T07:05:58.856Z,2.37
2018-01-30T07:07:03.054Z,2.38
2018-01-30T07:08:07.457Z,2.37
2018-01-30T07:09:11.716Z,2.37
2018-01-30T07:10:15.830Z,2.37
2018-01-30T07:11:19.988Z,2.35
2018-01-30T07:12:24.232Z,2.35
2018-01-30T07:13:28.959Z,2.32
2018-01-30T07:14:34.391Z,2.33
2018-01-30T07:15:38.804Z,2.37
2018-01-30T07:16:43.179Z,2.37
2018-01-30T07:17:47.686Z,2.37
2018-01-30T07:18:51.930Z,2.36
2018-01-30T07:19:56.064Z,2.37
2018-01-30T07:21:00.187Z,2.38
2018-01-30T07:22:04.335Z,2.39
2018-01-30T07:23:08.634Z,2.42
2018-01-30T07:24:12.774Z,2.41
2018-01-30T07:25:16.963Z,2.41
2018-01-30T07:26:21.111Z,2.41
2018-01-30T07:27:25.600Z,2.45
2018-01-30T07:28:29.943Z,2.47
2018-01-30T07:29:35.040Z,2.48
2018-01-30T07:30:39.261Z,2.48
2018-01-30T07:31:43.402Z,2.45
2018-01-30T07:32:47.545Z,2.43
2018-01-30T07:33:52.072Z,2.43
2018-01-30T07:34:56.230Z,2.49
2018-01-30T07:36:00.408Z,2.51
2018-01-30T07:37:04.582Z,2.64
2018-01-30T07:38:08.711Z,2.66
2018-01-30T07:39:12.974Z,2.63
2018-01-30T07:40:17.446Z,2.62
2018-01-30T07:41:21.652Z,2.60
2018-01-30T07:42:25.843Z,2.59
2018-01-30T07:43:30.118Z,2.58
2018-01-30T07:44:34.256Z,2.58
2018-01-30T07:45:38.897Z,2.55
2018-01-30T07:46:43.014Z,2.56
2018-01-30T07:47:47.197Z,2.56
2018-01-30T07:48:51.510Z,2.61
2018-01-30T07:49:55.670Z,2.63
2018-01-30T07:50:59.915Z,2.65
2018-01-30T07:52:04.395Z,2.69
2018-01-30T07:53:08.602Z,2.69
2018-01-30T07:54:12.750Z,2.72
2018-01-30T07:55:16.984Z,2.74
2018-01-30T07:56:21.209Z,2.76
2018-01-30T07:57:25.333Z,2.78
2018-01-30T07:58:29.809Z,2.78
2018-01-30T07:59:34.853Z,2.80
2018-01-30T08:00:39.129Z,2.84
2018-01-30T08:01:43.670Z,2.88
2018-01-30T08:02:48.272Z,2.91
2018-01-30T08:03:52.556Z,2.95
2018-01-30T08:04:57.049Z,3.16
2018-01-30T08:06:01.327Z,3.19
2018-01-30T08:07:05.465Z,3.24
2018-01-30T08:08:09.675Z,3.28
2018-01-30T08:09:13.830Z,3.38
2018-01-30T08:10:18.894Z,3.42
2018-01-30T08:11:23.131Z,3.40
2018-01-30T08:12:27.226Z,3.37
2018-01-30T08:13:33.883Z,3.40
2018-01-30T08:14:38.042Z,3.37
2018-01-30T08:15:42.622Z,3.39
2018-01-30T08:16:47.273Z,3.42
2018-01-30T08:17:51.746Z,3.53
2018-01-30T08:18:55.894Z,3.63
2018-01-30T08:20:00.372Z,3.71
2018-01-30T08:21:04.618Z,3.84
2018-01-30T08:22:08.863Z,3.72
2018-01-30T08:23:13.014Z,3.76
2018-01-30T08:24:17.481Z,3.87
2018-01-30T08:25:21.641Z,3.96
2018-01-30T08:26:25.866Z,3.98
2018-01-30T08:27:30.035Z,4.09
2018-01-30T08:28:34.271Z,4.17
2018-01-30T08:29:38.449Z,4.17
2018-01-30T08:30:43.122Z,4.11
2018-01-30T08:31:47.516Z,4.08
2018-01-30T08:32:52.137Z,4.11
2018-01-30T08:33:56.336Z,4.02
2018-01-30T08:35:00.568Z,4.09
2018-01-30T08:36:04.759Z,4.14
2018-01-30T08:37:09.207Z,4.05
2018-01-30T08:38:13.490Z,4.11
2018-01-30T08:39:17.720Z,4.15
2018-01-30T08:40:21.883Z,4.18
2018-01-30T08:41:25.984Z,4.29
2018-01-30T08:42:30.455Z,4.42
2018-01-30T08:43:34.702Z,4.42
2018-01-30T08:44:38.823Z,4.41
2018-01-30T08:45:43.354Z,4.48
2018-01-30T08:46:48.657Z,4.42
2018-01-30T08:47:53.153Z,4.29
2018-01-30T08:48:57.623Z,4.30
2018-01-30T08:50:01.852Z,4.28
2018-01-30T08:51:06.124Z,4.29
2018-01-30T08:52:10.314Z,4.24
2018-01-30T08:53:14.465Z,4.34
2018-01-30T08:54:18.627Z,4.43
2018-01-30T08:55:23.234Z,4.69
2018-01-30T08:56:27.436Z,4.65
2018-01-30T08:57:31.701Z,4.60
2018-01-30T08:58:35.853Z,4.69
2018-01-30T08:59:41.052Z,4.89
2018-01-30T09:00:45.278Z,4.90
2018-01-30T09:01:49.814Z,4.90
2018-01-30T09:02:54.035Z,5.05
2018-01-30T09:03:58.220Z,5.04
2018-01-30T09:05:02.363Z,5.23
2018-01-30T09:06:06.610Z,5.31
2018-01-30T09:07:10.725Z,5.50
2018-01-30T09:08:15.192Z,5.54
2018-01-30T09:09:19.350Z,5.58
2018-01-30T09:10:23.632Z,5.82
2018-01-30T09:11:27.770Z,5.93
2018-01-30T09:12:31.985Z,5.67
2018-01-30T09:13:36.164Z,5.49
2018-01-30T09:14:40.625Z,5.61
2018-01-30T09:15:45.252Z,5.69
2018-01-30T09:16:49.806Z,5.83
2018-01-30T09:17:54.137Z,6.01
2018-01-30T09:18:58.280Z,6.21
2018-01-30T09:20:02.439Z,6.26
2018-01-30T09:21:06.990Z,6.35
2018-01-30T09:22:11.203Z,6.48
2018-01-30T09:23:15.423Z,6.82
2018-01-30T09:24:19.589Z,6.74
2018-01-30T09:25:24.566Z,7.10
2018-01-30T09:26:28.846Z,7.20
2018-01-30T09:27:33.961Z,7.08
2018-01-30T09:28:38.114Z,6.71
2018-01-30T09:29:42.330Z,6.44
2018-01-30T09:30:46.944Z,6.37
2018-01-30T09:31:51.150Z,6.42
2018-01-30T09:32:55.625Z,6.41
2018-01-30T09:33:59.762Z,6.57
2018-01-30T09:35:03.914Z,6.78
2018-01-30T09:36:08.168Z,6.68
2018-01-30T09:37:12.337Z,6.76
2018-01-30T09:38:16.590Z,6.81
2018-01-30T09:39:21.110Z,6.74
2018-01-30T09:40:25.307Z,6.53
2018-01-30T09:41:29.874Z,6.65
2018-01-30T09:42:34.112Z,7.04
2018-01-30T09:43:39.176Z,7.20
2018-01-30T09:44:43.309Z,6.98
2018-01-30T09:45:48.220Z,6.93
2018-01-30T09:46:52.426Z,6.98
2018-01-30T09:47:56.735Z,6.97
2018-01-30T09:49:00.915Z,7.06
2018-01-30T09:50:06.056Z,7.34
2018-01-30T09:51:10.272Z,7.33
2018-01-30T09:52:14.486Z,7.33
2018-01-30T09:53:18.775Z,7.42
2018-01-30T09:54:22.974Z,7.50
2018-01-30T09:55:27.252Z,7.50
2018-01-30T09:56:31.429Z,7.60
2018-01-30T09:57:35.921Z,7.66
2018-01-30T09:58:40.436Z,7.56
2018-01-30T09:59:45.608Z,7.74
2018-01-30T10:00:50.836Z,7.88
2018-01-30T10:01:54.979Z,8.16
2018-01-30T10:02:59.230Z,8.18
2018-01-30T10:04:03.400Z,7.80
2018-01-30T10:05:07.849Z,7.59
2018-01-30T10:06:12.021Z,7.53
2018-01-30T10:07:16.258Z,7.76
2018-01-30T10:08:20.406Z,7.98
2018-01-30T10:09:24.522Z,8.13
2018-01-30T10:10:28.664Z,8.06
2018-01-30T10:11:33.220Z,8.00
2018-01-30T10:12:38.140Z,7.89
2018-01-30T10:13:42.307Z,7.90
2018-01-30T10:14:46.582Z,7.91
2018-01-30T10:15:51.036Z,7.53
2018-01-30T10:16:55.283Z,7.19
2018-01-30T10:17:59.527Z,7.00
2018-01-30T10:19:03.770Z,7.05
2018-01-30T10:20:08.078Z,7.33
2018-01-30T10:21:12.230Z,7.22
2018-01-30T10:22:18.331Z,7.44
2018-01-30T10:23:22.579Z,7.62
2018-01-30T10:24:26.750Z,7.94
2018-01-30T10:25:30.955Z,8.13
2018-01-30T10:26:35.249Z,8.16
2018-01-30T10:27:40.194Z,7.79
2018-01-30T10:28:44.701Z,7.87
2018-01-30T10:29:48.902Z,7.92
2018-01-30T10:30:53.550Z,7.72
2018-01-30T10:31:57.898Z,7.78
2018-01-30T10:33:02.200Z,7.78
2018-01-30T10:34:06.722Z,7.61
2018-01-30T10:35:11.125Z,7.72
2018-01-30T10:36:15.606Z,7.70
2018-01-30T10:37:19.889Z,7.47
2018-01-30T10:38:24.044Z,7.40
2018-01-30T10:39:28.242Z,7.26
2018-01-30T10:40:32.737Z,7.34
2018-01-30T10:41:37.804Z,7.21
2018-01-30T10:42:42.006Z,7.12
2018-01-30T10:43:47.006Z,7.19
2018-01-30T10:44:52.743Z,7.17
2018-01-30T10:45:57.206Z,7.09
2018-01-30T10:47:01.652Z,7.26
2018-01-30T10:48:05.806Z,7.39
2018-01-30T10:49:10.087Z,7.36
2018-01-30T10:50:14.283Z,7.33
2018-01-30T10:51:18.445Z,7.09
2018-01-30T10:52:22.591Z,7.09
2018-01-30T10:53:27.160Z,7.13
2018-01-30T10:54:31.411Z,7.08
2018-01-30T10:55:35.541Z,7.04
2018-01-30T10:56:39.810Z,6.99
2018-01-30T10:57:43.972Z,6.71
2018-01-30T10:58:49.014Z,6.46
2018-01-30T10:59:53.207Z,6.41
2018-01-30T11:00:58.851Z,6.34
2018-01-30T11:02:03.099Z,6.40
2018-01-30T11:03:07.294Z,6.50
2018-01-30T11:04:11.556Z,6.64
2018-01-30T11:05:18.330Z,6.93
2018-01-30T11:06:22.518Z,7.24
2018-01-30T11:07:26.803Z,7.58
2018-01-30T11:08:30.998Z,7.85
2018-01-30T11:09:37.026Z,8.11
2018-01-30T11:10:41.771Z,8.33
2018-01-30T11:11:46.375Z,8.24
2018-01-30T11:12:50.566Z,8.36
2018-01-30T11:13:55.648Z,8.38
2018-01-30T11:14:59.816Z,8.39
2018-01-30T11:16:04.245Z,8.70
2018-01-30T11:17:08.630Z,8.62
2018-01-30T11:18:13.294Z,8.52
2018-01-30T11:19:17.580Z,8.49
2018-01-30T11:20:21.755Z,8.46
2018-01-30T11:21:26.035Z,8.63
2018-01-30T11:22:30.248Z,8.88
2018-01-30T11:23:34.517Z,8.79
2018-01-30T11:24:38.843Z,8.36
2018-01-30T11:25:42.991Z,7.95
2018-01-30T11:26:47.180Z,7.72
2018-01-30T11:27:51.525Z,7.57
2018-01-30T11:28:56.071Z,7.19
2018-01-30T11:30:00.303Z,7.19
2018-01-30T11:31:04.484Z,7.27
2018-01-30T11:32:08.687Z,7.33
2018-01-30T11:33:12.926Z,7.52
2018-01-30T11:34:17.093Z,7.65
2018-01-30T11:35:21.663Z,7.46
2018-01-30T11:36:26.587Z,7.31
2018-01-30T11:37:30.763Z,7.37
2018-01-30T11:38:35.006Z,7.45
2018-01-30T11:39:39.315Z,7.63
2018-01-30T11:40:43.535Z,7.92
2018-01-30T11:41:48.051Z,7.99
2018-01-30T11:42:52.278Z,8.07
2018-01-30T11:43:57.055Z,7.87
2018-01-30T11:45:03.205Z,7.63
2018-01-30T11:46:07.572Z,7.60
2018-01-30T11:47:13.082Z,7.58
2018-01-30T11:48:17.284Z,7.30
2018-01-30T11:49:21.458Z,7.33
2018-01-30T11:50:25.905Z,7.48
2018-01-30T11:51:30.053Z,7.74
2018-01-30T11:52:34.294Z,7.73
2018-01-30T11:53:38.455Z,7.75
2018-01-30T11:54:42.913Z,7.71
2018-01-30T11:55:47.228Z,7.52
2018-01-30T11:56:51.395Z,7.26
2018-01-30T11:57:56.392Z,7.14
2018-01-30T11:59:00.531Z,6.93
2018-01-30T12:00:06.604Z,7.01
2018-01-30T12:01:11.082Z,7.06
2018-01-30T12:02:15.270Z,7.06
2018-01-30T12:03:19.401Z,7.16
2018-01-30T12:04:23.578Z,7.18
2018-01-30T12:05:27.922Z,7.41
2018-01-30T12:06:32.445Z,7.55
2018-01-30T12:07:36.588Z,7.96
2018-01-30T12:08:40.979Z,8.03
2018-01-30T12:09:45.137Z,8.12
2018-01-30T12:10:49.339Z,7.88
2018-01-30T12:11:53.482Z,7.76
2018-01-30T12:12:58.276Z,7.83
2018-01-30T12:14:02.659Z,7.75
2018-01-30T12:15:07.199Z,7.93
2018-01-30T12:16:11.418Z,8.06
2018-01-30T12:17:15.602Z,8.28
2018-01-30T12:18:20.097Z,8.08
2018-01-30T12:19:24.305Z,7.77
2018-01-30T12:20:28.606Z,7.58
2018-01-30T12:21:32.802Z,7.70
2018-01-30T12:22:36.974Z,7.96
2018-01-30T12:23:41.310Z,7.94
2018-01-30T12:24:46.263Z,7.63
2018-01-30T12:25:50.532Z,7.42
2018-01-30T12:26:54.758Z,7.16
2018-01-30T12:27:58.991Z,7.10
2018-01-30T12:29:03.234Z,7.06
2018-01-30T12:30:07.920Z,7.00
2018-01-30T12:31:12.894Z,7.14
2018-01-30T12:32:17.124Z,7.30
2018-01-30T12:33:21.342Z,8.01
2018-01-30T12:34:25.575Z,8.30
2018-01-30T12:35:29.772Z,8.41
2018-01-30T12:36:35.111Z,8.39
2018-01-30T12:37:39.655Z,8.12
2018-01-30T12:38:45.954Z,8.07
2018-01-30T12:39:50.791Z,8.04
2018-01-30T12:40:56.202Z,7.90
2018-01-30T12:42:00.481Z,8.07
2018-01-30T12:43:04.664Z,8.06
2018-01-30T12:44:08.917Z,7.73
2018-01-30T12:45:18.259Z,7.80
2018-01-30T12:46:22.490Z,7.95
2018-01-30T12:47:26.702Z,8.00
2018-01-30T12:48:31.314Z,7.88
2018-01-30T12:49:35.568Z,7.74
2018-01-30T12:50:39.817Z,7.67
2018-01-30T12:51:44.042Z,7.59
2018-01-30T12:52:48.294Z,7.62
2018-01-30T12:53:52.601Z,7.48
2018-01-30T12:54:58.499Z,7.47
2018-01-30T12:56:02.774Z,7.49
2018-01-30T12:57:07.026Z,7.53
2018-01-30T12:58:11.236Z,7.61
2018-01-30T12:59:15.545Z,7.75
2018-01-30T13:00:20.119Z,7.60
2018-01-30T13:01:24.665Z,7.73
2018-01-30T13:02:28.899Z,7.57
2018-01-30T13:03:33.211Z,7.40
2018-01-30T13:04:37.490Z,7.42
2018-01-30T13:05:41.783Z,7.47
2018-01-30T13:06:46.822Z,7.54
2018-01-30T13:07:51.303Z,7.90
2018-01-30T13:08:55.490Z,8.15
2018-01-30T13:09:59.657Z,8.18
2018-01-30T13:11:03.891Z,7.99
2018-01-30T13:12:08.114Z,8.06
2018-01-30T13:13:12.380Z,7.96
2018-01-30T13:14:16.616Z,8.03
2018-01-30T13:15:20.857Z,8.06
2018-01-30T13:16:25.315Z,8.21
2018-01-30T13:17:29.563Z,8.07
2018-01-30T13:18:33.851Z,8.06
2018-01-30T13:19:38.011Z,7.96
2018-01-30T13:20:43.490Z,7.85
2018-01-30T13:21:47.690Z,7.85
2018-01-30T13:22:51.948Z,7.75
2018-01-30T13:23:58.779Z,7.52
2018-01-30T13:25:03.040Z,7.49
2018-01-30T13:26:07.350Z,7.50
2018-01-30T13:27:11.950Z,7.57
2018-01-30T13:28:16.171Z,7.56
2018-01-30T13:29:20.409Z,7.55
2018-01-30T13:30:24.655Z,7.63
2018-01-30T13:31:28.877Z,7.60
2018-01-30T13:32:33.222Z,7.51
2018-01-30T13:33:37.695Z,7.38
2018-01-30T13:34:42.012Z,7.09
2018-01-30T13:35:46.186Z,7.09
2018-01-30T13:36:51.186Z,7.16
2018-01-30T13:37:55.527Z,7.65
2018-01-30T13:38:59.993Z,7.77
2018-01-30T13:40:04.543Z,7.67
2018-01-30T13:41:08.743Z,7.42
2018-01-30T13:42:12.990Z,7.20
2018-01-30T13:43:17.352Z,7.19
2018-01-30T13:44:21.551Z,7.17
2018-01-30T13:45:26.666Z,7.19
2018-01-30T13:46:30.957Z,7.24
2018-01-30T13:47:35.195Z,7.33
2018-01-30T13:48:39.518Z,7.39
2018-01-30T13:49:44.582Z,7.16
2018-01-30T13:50:50.723Z,7.00
2018-01-30T13:51:55.274Z,7.02
2018-01-30T13:53:00.443Z,7.02
2018-01-30T13:54:04.738Z,7.03
2018-01-30T13:55:08.987Z,7.09
2018-01-30T13:56:13.233Z,7.04
2018-01-30T13:57:17.478Z,7.02
2018-01-30T13:58:22.017Z,7.17
2018-01-30T13:59:26.336Z,7.25
2018-01-30T14:00:30.722Z,7.40
2018-01-30T14:01:35.334Z,7.67
2018-01-30T14:02:39.567Z,7.96
2018-01-30T14:03:44.346Z,8.15
2018-01-30T14:04:48.584Z,8.22
2018-01-30T14:05:52.919Z,8.30
2018-01-30T14:06:57.192Z,8.43
2018-01-30T14:08:01.571Z,8.93
2018-01-30T14:09:05.998Z,9.76
2018-01-30T14:10:10.595Z,9.31
2018-01-30T14:11:15.146Z,8.81
2018-01-30T14:12:19.496Z,8.76
2018-01-30T14:13:23.799Z,9.20
2018-01-30T14:14:30.105Z,9.34
2018-01-30T14:15:34.509Z,9.90
2018-01-30T14:16:38.814Z,10.30
2018-01-30T14:17:43.924Z,10.50
2018-01-30T14:18:48.141Z,10.71
2018-01-30T14:19:52.359Z,10.50
2018-01-30T14:20:56.589Z,10.17
2018-01-30T14:22:00.902Z,10.16
2018-01-30T14:23:05.423Z,9.68
2018-01-30T14:24:09.659Z,9.26
2018-01-30T14:25:13.876Z,9.00